sensor_id;sensor_type;location;lat;lon;timestamp;P1;durP1;ratioP1;P2;durP2;ratioP2
10174;SDS011;18221;38.704;0.152;2023-08-24T00:12:01;6.50;;;5.82;;
10174;SDS011;18221;38.704;0.152;2023-08-24T00:14:29;6.63;;;6.03;;
10174;SDS011;18221;38.704;0.152;2023-08-24T00:16:57;6.82;;;6.20;;
10174;SDS011;18221;38.704;0.152;2023-08-24T00:19:25;7.45;;;6.72;;
10174;SDS011;18221;38.704;0.152;2023-08-24T00:21:53;7.68;;;6.38;;
10174;SDS011;18221;38.704;0.152;2023-08-24T00:24:21;7.85;;;6.50;;
10174;SDS011;18221;38.704;0.152;2023-08-24T00:26:49;8.05;;;6.47;;
10174;SDS011;18221;38.704;0.152;2023-08-24T00:29:18;6.80;;;6.15;;
10174;SDS011;18221;38.704;0.152;2023-08-24T00:31:47;7.65;;;6.40;;
10174;SDS011;18221;38.704;0.152;2023-08-24T00:34:16;7.18;;;6.32;;
10174;SDS011;18221;38.704;0.152;2023-08-24T00:36:44;6.68;;;5.93;;
10174;SDS011;18221;38.704;0.152;2023-08-24T00:39:12;7.55;;;6.75;;
10174;SDS011;18221;38.704;0.152;2023-08-24T00:41:41;7.38;;;6.50;;
10174;SDS011;18221;38.704;0.152;2023-08-24T00:44:10;7.35;;;6.65;;
10174;SDS011;18221;38.704;0.152;2023-08-24T00:46:39;7.70;;;6.95;;
10174;SDS011;18221;38.704;0.152;2023-08-24T00:49:07;8.30;;;6.45;;
10174;SDS011;18221;38.704;0.152;2023-08-24T00:51:36;8.93;;;7.00;;
10174;SDS011;18221;38.704;0.152;2023-08-24T00:54:04;6.72;;;6.13;;
10174;SDS011;18221;38.704;0.152;2023-08-24T00:56:32;7.50;;;6.80;;
10174;SDS011;18221;38.704;0.152;2023-08-24T00:59:00;8.45;;;6.82;;
10174;SDS011;18221;38.704;0.152;2023-08-24T01:01:29;7.97;;;6.63;;
10174;SDS011;18221;38.704;0.152;2023-08-24T01:03:58;7.35;;;6.60;;
10174;SDS011;18221;38.704;0.152;2023-08-24T01:06:27;7.60;;;6.80;;
10174;SDS011;18221;38.704;0.152;2023-08-24T01:08:55;9.20;;;6.63;;
10174;SDS011;18221;38.704;0.152;2023-08-24T01:11:25;7.45;;;6.13;;
10174;SDS011;18221;38.704;0.152;2023-08-24T01:14:12;7.07;;;6.38;;
10174;SDS011;18221;38.704;0.152;2023-08-24T01:16:50;8.45;;;7.13;;
10174;SDS011;18221;38.704;0.152;2023-08-24T01:19:30;7.53;;;6.82;;
10174;SDS011;18221;38.704;0.152;2023-08-24T01:22:10;8.20;;;6.53;;
10174;SDS011;18221;38.704;0.152;2023-08-24T01:25:00;6.80;;;6.15;;
10174;SDS011;18221;38.704;0.152;2023-08-24T01:27:36;7.53;;;6.80;;
10174;SDS011;18221;38.704;0.152;2023-08-24T01:30:06;7.88;;;6.93;;
10174;SDS011;18221;38.704;0.152;2023-08-24T01:32:38;9.30;;;6.88;;
10174;SDS011;18221;38.704;0.152;2023-08-24T01:35:09;7.15;;;6.45;;
10174;SDS011;18221;38.704;0.152;2023-08-24T01:37:37;7.05;;;6.30;;
10174;SDS011;18221;38.704;0.152;2023-08-24T01:40:06;7.03;;;6.32;;
10174;SDS011;18221;38.704;0.152;2023-08-24T01:42:45;7.40;;;6.13;;
10174;SDS011;18221;38.704;0.152;2023-08-24T01:45:22;7.55;;;6.85;;
10174;SDS011;18221;38.704;0.152;2023-08-24T01:47:55;8.23;;;7.00;;
10174;SDS011;18221;38.704;0.152;2023-08-24T01:50:28;7.43;;;6.68;;
10174;SDS011;18221;38.704;0.152;2023-08-24T01:52:57;7.10;;;6.05;;
10174;SDS011;18221;38.704;0.152;2023-08-24T01:55:25;7.30;;;6.47;;
10174;SDS011;18221;38.704;0.152;2023-08-24T01:57:56;7.20;;;6.50;;
10174;SDS011;18221;38.704;0.152;2023-08-24T02:00:24;7.25;;;6.50;;
10174;SDS011;18221;38.704;0.152;2023-08-24T02:02:53;9.32;;;7.00;;
10174;SDS011;18221;38.704;0.152;2023-08-24T02:05:21;7.03;;;6.32;;
10174;SDS011;18221;38.704;0.152;2023-08-24T02:07:52;7.50;;;6.22;;
10174;SDS011;18221;38.704;0.152;2023-08-24T02:10:20;9.38;;;6.72;;
10174;SDS011;18221;38.704;0.152;2023-08-24T02:12:48;7.40;;;6.65;;
10174;SDS011;18221;38.704;0.152;2023-08-24T02:15:18;9.18;;;6.70;;
10174;SDS011;18221;38.704;0.152;2023-08-24T02:17:46;8.73;;;5.90;;
10174;SDS011;18221;38.704;0.152;2023-08-24T02:20:17;6.45;;;5.85;;
10174;SDS011;18221;38.704;0.152;2023-08-24T02:22:48;6.43;;;5.75;;
10174;SDS011;18221;38.704;0.152;2023-08-24T02:25:16;7.00;;;5.85;;
10174;SDS011;18221;38.704;0.152;2023-08-24T02:27:44;8.18;;;6.55;;
10174;SDS011;18221;38.704;0.152;2023-08-24T02:30:13;8.23;;;6.20;;
10174;SDS011;18221;38.704;0.152;2023-08-24T02:32:43;7.07;;;6.13;;
10174;SDS011;18221;38.704;0.152;2023-08-24T02:35:11;8.00;;;6.43;;
10174;SDS011;18221;38.704;0.152;2023-08-24T02:37:39;7.05;;;6.32;;
10174;SDS011;18221;38.704;0.152;2023-08-24T02:40:07;7.03;;;6.30;;
10174;SDS011;18221;38.704;0.152;2023-08-24T02:42:36;6.80;;;6.10;;
10174;SDS011;18221;38.704;0.152;2023-08-24T02:45:05;6.63;;;6.03;;
10174;SDS011;18221;38.704;0.152;2023-08-24T02:47:33;6.53;;;5.93;;
10174;SDS011;18221;38.704;0.152;2023-08-24T02:50:04;7.03;;;6.32;;
10174;SDS011;18221;38.704;0.152;2023-08-24T02:52:33;6.90;;;6.30;;
10174;SDS011;18221;38.704;0.152;2023-08-24T02:55:01;7.40;;;6.70;;
10174;SDS011;18221;38.704;0.152;2023-08-24T02:57:31;7.35;;;6.15;;
10174;SDS011;18221;38.704;0.152;2023-08-24T03:00:02;7.18;;;6.47;;
10174;SDS011;18221;38.704;0.152;2023-08-24T03:02:32;6.95;;;6.30;;
10174;SDS011;18221;38.704;0.152;2023-08-24T03:05:00;7.25;;;6.25;;
10174;SDS011;18221;38.704;0.152;2023-08-24T03:07:29;7.60;;;6.63;;
10174;SDS011;18221;38.704;0.152;2023-08-24T03:09:57;6.78;;;6.05;;
10174;SDS011;18221;38.704;0.152;2023-08-24T03:12:25;6.68;;;6.07;;
10174;SDS011;18221;38.704;0.152;2023-08-24T03:14:54;7.15;;;6.45;;
10174;SDS011;18221;38.704;0.152;2023-08-24T03:17:22;7.35;;;6.32;;
10174;SDS011;18221;38.704;0.152;2023-08-24T03:19:51;7.13;;;6.43;;
10174;SDS011;18221;38.704;0.152;2023-08-24T03:22:20;6.90;;;6.25;;
10174;SDS011;18221;38.704;0.152;2023-08-24T03:24:48;7.07;;;6.38;;
10174;SDS011;18221;38.704;0.152;2023-08-24T03:27:16;6.63;;;5.70;;
10174;SDS011;18221;38.704;0.152;2023-08-24T03:29:44;6.70;;;6.10;;
10174;SDS011;18221;38.704;0.152;2023-08-24T03:32:12;8.02;;;6.45;;
10174;SDS011;18221;38.704;0.152;2023-08-24T03:34:40;7.05;;;6.35;;
10174;SDS011;18221;38.704;0.152;2023-08-24T03:37:08;7.10;;;6.30;;
10174;SDS011;18221;38.704;0.152;2023-08-24T03:39:38;6.50;;;5.85;;
10174;SDS011;18221;38.704;0.152;2023-08-24T03:42:07;6.97;;;6.38;;
10174;SDS011;18221;38.704;0.152;2023-08-24T03:44:35;6.72;;;6.03;;
10174;SDS011;18221;38.704;0.152;2023-08-24T03:47:04;7.30;;;6.20;;
10174;SDS011;18221;38.704;0.152;2023-08-24T03:49:32;7.45;;;6.45;;
10174;SDS011;18221;38.704;0.152;2023-08-24T03:51:59;6.70;;;6.10;;
10174;SDS011;18221;38.704;0.152;2023-08-24T03:54:28;7.95;;;6.32;;
10174;SDS011;18221;38.704;0.152;2023-08-24T03:56:57;7.22;;;6.53;;
10174;SDS011;18221;38.704;0.152;2023-08-24T03:59:25;7.60;;;6.32;;
10174;SDS011;18221;38.704;0.152;2023-08-24T04:01:53;7.18;;;6.20;;
10174;SDS011;18221;38.704;0.152;2023-08-24T04:04:24;7.30;;;6.60;;
10174;SDS011;18221;38.704;0.152;2023-08-24T04:06:53;6.90;;;5.88;;
10174;SDS011;18221;38.704;0.152;2023-08-24T04:09:21;6.45;;;5.80;;
10174;SDS011;18221;38.704;0.152;2023-08-24T04:11:49;6.35;;;5.75;;
10174;SDS011;18221;38.704;0.152;2023-08-24T04:14:18;6.53;;;5.93;;
10174;SDS011;18221;38.704;0.152;2023-08-24T04:16:46;6.50;;;5.93;;
10174;SDS011;18221;38.704;0.152;2023-08-24T04:19:14;7.05;;;6.30;;
10174;SDS011;18221;38.704;0.152;2023-08-24T04:21:42;6.93;;;6.22;;
10174;SDS011;18221;38.704;0.152;2023-08-24T04:24:10;8.00;;;6.78;;
10174;SDS011;18221;38.704;0.152;2023-08-24T04:26:40;6.20;;;5.65;;
10174;SDS011;18221;38.704;0.152;2023-08-24T04:29:08;7.63;;;5.82;;
10174;SDS011;18221;38.704;0.152;2023-08-24T04:31:37;6.82;;;6.15;;
10174;SDS011;18221;38.704;0.152;2023-08-24T04:34:07;6.97;;;6.03;;
10174;SDS011;18221;38.704;0.152;2023-08-24T04:36:36;6.82;;;6.00;;
10174;SDS011;18221;38.704;0.152;2023-08-24T04:39:04;6.93;;;6.28;;
10174;SDS011;18221;38.704;0.152;2023-08-24T04:41:32;6.68;;;6.07;;
10174;SDS011;18221;38.704;0.152;2023-08-24T04:44:00;8.50;;;5.95;;
10174;SDS011;18221;38.704;0.152;2023-08-24T04:46:29;6.78;;;6.07;;
10174;SDS011;18221;38.704;0.152;2023-08-24T04:48:58;7.05;;;6.45;;
10174;SDS011;18221;38.704;0.152;2023-08-24T04:51:26;6.25;;;5.72;;
10174;SDS011;18221;38.704;0.152;2023-08-24T04:53:54;7.00;;;6.30;;
10174;SDS011;18221;38.704;0.152;2023-08-24T04:56:22;6.80;;;6.10;;
10174;SDS011;18221;38.704;0.152;2023-08-24T04:58:53;6.10;;;5.55;;
10174;SDS011;18221;38.704;0.152;2023-08-24T05:01:22;6.97;;;6.30;;
10174;SDS011;18221;38.704;0.152;2023-08-24T05:03:50;6.63;;;6.03;;
10174;SDS011;18221;38.704;0.152;2023-08-24T05:06:20;6.57;;;5.97;;
10174;SDS011;18221;38.704;0.152;2023-08-24T05:08:48;6.88;;;6.18;;
10174;SDS011;18221;38.704;0.152;2023-08-24T05:11:17;7.20;;;6.50;;
10174;SDS011;18221;38.704;0.152;2023-08-24T05:13:46;7.07;;;6.20;;
10174;SDS011;18221;38.704;0.152;2023-08-24T05:16:14;6.25;;;5.72;;
10174;SDS011;18221;38.704;0.152;2023-08-24T05:18:42;6.28;;;5.72;;
10174;SDS011;18221;38.704;0.152;2023-08-24T05:21:11;7.68;;;6.20;;
10174;SDS011;18221;38.704;0.152;2023-08-24T05:23:40;6.97;;;6.28;;
10174;SDS011;18221;38.704;0.152;2023-08-24T05:26:08;6.47;;;5.80;;
10174;SDS011;18221;38.704;0.152;2023-08-24T05:28:37;6.78;;;6.18;;
10174;SDS011;18221;38.704;0.152;2023-08-24T05:31:04;6.93;;;6.20;;
10174;SDS011;18221;38.704;0.152;2023-08-24T05:33:32;7.40;;;6.15;;
10174;SDS011;18221;38.704;0.152;2023-08-24T05:36:00;6.70;;;5.72;;
10174;SDS011;18221;38.704;0.152;2023-08-24T05:38:28;6.82;;;6.15;;
10174;SDS011;18221;38.704;0.152;2023-08-24T05:40:58;7.03;;;5.97;;
10174;SDS011;18221;38.704;0.152;2023-08-24T05:43:26;6.80;;;6.07;;
10174;SDS011;18221;38.704;0.152;2023-08-24T05:45:54;6.85;;;6.25;;
10174;SDS011;18221;38.704;0.152;2023-08-24T05:48:23;6.85;;;5.88;;
10174;SDS011;18221;38.704;0.152;2023-08-24T05:50:51;6.78;;;5.93;;
10174;SDS011;18221;38.704;0.152;2023-08-24T05:53:19;8.98;;;6.45;;
10174;SDS011;18221;38.704;0.152;2023-08-24T05:55:47;7.35;;;6.63;;
10174;SDS011;18221;38.704;0.152;2023-08-24T05:58:17;6.32;;;5.80;;
10174;SDS011;18221;38.704;0.152;2023-08-24T06:00:44;7.38;;;6.47;;
10174;SDS011;18221;38.704;0.152;2023-08-24T06:03:12;7.20;;;5.95;;
10174;SDS011;18221;38.704;0.152;2023-08-24T06:05:40;6.38;;;5.70;;
10174;SDS011;18221;38.704;0.152;2023-08-24T06:08:08;7.05;;;6.35;;
10174;SDS011;18221;38.704;0.152;2023-08-24T06:10:36;7.10;;;5.75;;
10174;SDS011;18221;38.704;0.152;2023-08-24T06:13:03;6.72;;;6.13;;
10174;SDS011;18221;38.704;0.152;2023-08-24T06:15:33;6.90;;;6.20;;
10174;SDS011;18221;38.704;0.152;2023-08-24T06:18:01;7.03;;;6.32;;
10174;SDS011;18221;38.704;0.152;2023-08-24T06:20:30;7.35;;;6.53;;
10174;SDS011;18221;38.704;0.152;2023-08-24T06:22:58;8.07;;;6.10;;
10174;SDS011;18221;38.704;0.152;2023-08-24T06:25:27;6.63;;;6.03;;
10174;SDS011;18221;38.704;0.152;2023-08-24T06:27:56;6.82;;;6.10;;
10174;SDS011;18221;38.704;0.152;2023-08-24T06:30:25;8.30;;;6.15;;
10174;SDS011;18221;38.704;0.152;2023-08-24T06:32:55;6.45;;;5.85;;
10174;SDS011;18221;38.704;0.152;2023-08-24T06:35:23;6.57;;;6.05;;
10174;SDS011;18221;38.704;0.152;2023-08-24T06:37:51;6.60;;;6.00;;
10174;SDS011;18221;38.704;0.152;2023-08-24T06:40:19;6.63;;;6.03;;
10174;SDS011;18221;38.704;0.152;2023-08-24T06:42:47;6.55;;;5.95;;
10174;SDS011;18221;38.704;0.152;2023-08-24T06:45:15;6.30;;;5.70;;
10174;SDS011;18221;38.704;0.152;2023-08-24T06:47:43;7.07;;;6.38;;
10174;SDS011;18221;38.704;0.152;2023-08-24T06:50:13;7.80;;;6.25;;
10174;SDS011;18221;38.704;0.152;2023-08-24T06:52:42;5.85;;;5.35;;
10174;SDS011;18221;38.704;0.152;2023-08-24T06:55:10;6.90;;;6.20;;
10174;SDS011;18221;38.704;0.152;2023-08-24T06:57:38;6.40;;;5.80;;
10174;SDS011;18221;38.704;0.152;2023-08-24T07:00:07;5.88;;;5.38;;
10174;SDS011;18221;38.704;0.152;2023-08-24T07:02:40;6.57;;;5.97;;
10174;SDS011;18221;38.704;0.152;2023-08-24T07:05:08;6.72;;;6.03;;
10174;SDS011;18221;38.704;0.152;2023-08-24T07:07:39;5.90;;;5.40;;
10174;SDS011;18221;38.704;0.152;2023-08-24T07:10:08;5.97;;;5.47;;
10174;SDS011;18221;38.704;0.152;2023-08-24T07:12:37;6.25;;;5.70;;
10174;SDS011;18221;38.704;0.152;2023-08-24T07:15:06;6.97;;;5.80;;
10174;SDS011;18221;38.704;0.152;2023-08-24T07:17:35;6.18;;;5.57;;
10174;SDS011;18221;38.704;0.152;2023-08-24T07:20:03;6.47;;;5.88;;
10174;SDS011;18221;38.704;0.152;2023-08-24T07:22:33;5.90;;;5.30;;
10174;SDS011;18221;38.704;0.152;2023-08-24T07:25:03;6.20;;;5.47;;
10174;SDS011;18221;38.704;0.152;2023-08-24T07:27:33;5.88;;;5.38;;
10174;SDS011;18221;38.704;0.152;2023-08-24T07:30:02;5.93;;;5.40;;
10174;SDS011;18221;38.704;0.152;2023-08-24T07:32:32;6.03;;;5.15;;
10174;SDS011;18221;38.704;0.152;2023-08-24T07:35:00;5.38;;;4.88;;
10174;SDS011;18221;38.704;0.152;2023-08-24T07:37:29;6.30;;;5.38;;
10174;SDS011;18221;38.704;0.152;2023-08-24T07:39:57;5.07;;;4.55;;
10174;SDS011;18221;38.704;0.152;2023-08-24T07:42:26;5.38;;;4.68;;
10174;SDS011;18221;38.704;0.152;2023-08-24T07:44:55;5.68;;;5.00;;
10174;SDS011;18221;38.704;0.152;2023-08-24T07:47:23;5.28;;;4.82;;
10174;SDS011;18221;38.704;0.152;2023-08-24T07:49:51;5.75;;;5.20;;
10174;SDS011;18221;38.704;0.152;2023-08-24T07:52:19;6.65;;;5.18;;
10174;SDS011;18221;38.704;0.152;2023-08-24T07:54:52;5.47;;;4.97;;
10174;SDS011;18221;38.704;0.152;2023-08-24T07:57:20;5.05;;;4.55;;
10174;SDS011;18221;38.704;0.152;2023-08-24T07:59:50;7.38;;;4.90;;
10174;SDS011;18221;38.704;0.152;2023-08-24T08:02:18;6.78;;;5.10;;
10174;SDS011;18221;38.704;0.152;2023-08-24T08:04:47;5.80;;;5.30;;
10174;SDS011;18221;38.704;0.152;2023-08-24T08:07:14;6.55;;;4.90;;
10174;SDS011;18221;38.704;0.152;2023-08-24T08:09:43;4.97;;;4.38;;
10174;SDS011;18221;38.704;0.152;2023-08-24T08:12:11;5.47;;;4.97;;
10174;SDS011;18221;38.704;0.152;2023-08-24T08:14:39;5.80;;;5.18;;
10174;SDS011;18221;38.704;0.152;2023-08-24T08:17:08;5.85;;;5.18;;
10174;SDS011;18221;38.704;0.152;2023-08-24T08:19:36;8.52;;;4.85;;
10174;SDS011;18221;38.704;0.152;2023-08-24T08:22:05;5.82;;;5.22;;
10174;SDS011;18221;38.704;0.152;2023-08-24T08:24:33;7.30;;;5.05;;
10174;SDS011;18221;38.704;0.152;2023-08-24T08:27:00;5.93;;;5.30;;
10174;SDS011;18221;38.704;0.152;2023-08-24T08:29:28;6.45;;;5.72;;
10174;SDS011;18221;38.704;0.152;2023-08-24T08:31:56;6.53;;;5.30;;
10174;SDS011;18221;38.704;0.152;2023-08-24T08:34:26;6.15;;;5.15;;
10174;SDS011;18221;38.704;0.152;2023-08-24T08:36:54;6.15;;;5.55;;
10174;SDS011;18221;38.704;0.152;2023-08-24T08:39:22;7.88;;;5.30;;
10174;SDS011;18221;38.704;0.152;2023-08-24T08:41:50;5.85;;;5.18;;
10174;SDS011;18221;38.704;0.152;2023-08-24T08:44:18;6.63;;;5.15;;
10174;SDS011;18221;38.704;0.152;2023-08-24T08:46:49;7.22;;;5.30;;
10174;SDS011;18221;38.704;0.152;2023-08-24T08:49:17;7.15;;;5.00;;
10174;SDS011;18221;38.704;0.152;2023-08-24T08:51:48;5.88;;;5.03;;
10174;SDS011;18221;38.704;0.152;2023-08-24T08:54:17;6.93;;;5.70;;
10174;SDS011;18221;38.704;0.152;2023-08-24T08:56:45;6.43;;;5.78;;
10174;SDS011;18221;38.704;0.152;2023-08-24T08:59:14;6.88;;;5.60;;
10174;SDS011;18221;38.704;0.152;2023-08-24T09:01:43;6.15;;;4.97;;
10174;SDS011;18221;38.704;0.152;2023-08-24T09:04:16;8.23;;;5.72;;
10174;SDS011;18221;38.704;0.152;2023-08-24T09:06:44;6.35;;;5.55;;
10174;SDS011;18221;38.704;0.152;2023-08-24T09:09:14;6.05;;;5.50;;
10174;SDS011;18221;38.704;0.152;2023-08-24T09:11:43;6.30;;;5.78;;
10174;SDS011;18221;38.704;0.152;2023-08-24T09:14:12;6.88;;;4.97;;
10174;SDS011;18221;38.704;0.152;2023-08-24T09:16:41;5.60;;;5.00;;
10174;SDS011;18221;38.704;0.152;2023-08-24T09:19:10;5.85;;;5.35;;
10174;SDS011;18221;38.704;0.152;2023-08-24T09:21:39;7.25;;;5.38;;
10174;SDS011;18221;38.704;0.152;2023-08-24T09:24:08;5.82;;;5.03;;
10174;SDS011;18221;38.704;0.152;2023-08-24T09:26:39;6.95;;;5.40;;
10174;SDS011;18221;38.704;0.152;2023-08-24T09:29:12;5.75;;;5.10;;
10174;SDS011;18221;38.704;0.152;2023-08-24T09:31:41;6.10;;;5.50;;
10174;SDS011;18221;38.704;0.152;2023-08-24T09:34:10;5.90;;;5.32;;
10174;SDS011;18221;38.704;0.152;2023-08-24T09:36:38;6.00;;;5.40;;
10174;SDS011;18221;38.704;0.152;2023-08-24T09:39:07;6.00;;;5.43;;
10174;SDS011;18221;38.704;0.152;2023-08-24T09:41:37;5.93;;;5.32;;
10174;SDS011;18221;38.704;0.152;2023-08-24T09:44:08;6.13;;;5.50;;
10174;SDS011;18221;38.704;0.152;2023-08-24T09:46:37;7.05;;;6.05;;
10174;SDS011;18221;38.704;0.152;2023-08-24T09:49:06;5.78;;;5.20;;
10174;SDS011;18221;38.704;0.152;2023-08-24T09:51:37;6.40;;;5.65;;
10174;SDS011;18221;38.704;0.152;2023-08-24T09:54:06;6.20;;;5.60;;
10174;SDS011;18221;38.704;0.152;2023-08-24T09:56:36;6.72;;;6.03;;
10174;SDS011;18221;38.704;0.152;2023-08-24T09:59:11;6.47;;;5.90;;
10174;SDS011;18221;38.704;0.152;2023-08-24T10:01:44;6.45;;;5.82;;
10174;SDS011;18221;38.704;0.152;2023-08-24T10:04:13;6.80;;;6.10;;
10174;SDS011;18221;38.704;0.152;2023-08-24T10:06:44;5.82;;;5.32;;
10174;SDS011;18221;38.704;0.152;2023-08-24T10:09:19;6.65;;;6.03;;
10174;SDS011;18221;38.704;0.152;2023-08-24T10:11:56;6.85;;;5.53;;
10174;SDS011;18221;38.704;0.152;2023-08-24T10:14:31;6.45;;;5.53;;
10174;SDS011;18221;38.704;0.152;2023-08-24T10:17:09;6.85;;;6.18;;
10174;SDS011;18221;38.704;0.152;2023-08-24T10:19:38;6.32;;;5.65;;
10174;SDS011;18221;38.704;0.152;2023-08-24T10:22:09;6.55;;;5.75;;
10174;SDS011;18221;38.704;0.152;2023-08-24T10:24:38;8.68;;;5.68;;
10174;SDS011;18221;38.704;0.152;2023-08-24T10:27:10;7.30;;;5.78;;
10174;SDS011;18221;38.704;0.152;2023-08-24T10:29:40;7.50;;;6.18;;
10174;SDS011;18221;38.704;0.152;2023-08-24T10:32:08;6.97;;;6.15;;
10174;SDS011;18221;38.704;0.152;2023-08-24T10:34:37;6.78;;;5.45;;
10174;SDS011;18221;38.704;0.152;2023-08-24T10:37:08;6.78;;;6.10;;
10174;SDS011;18221;38.704;0.152;2023-08-24T10:39:37;8.07;;;6.05;;
10174;SDS011;18221;38.704;0.152;2023-08-24T10:42:12;6.70;;;6.07;;
10174;SDS011;18221;38.704;0.152;2023-08-24T10:44:43;6.50;;;5.90;;
10174;SDS011;18221;38.704;0.152;2023-08-24T10:47:13;7.15;;;5.72;;
10174;SDS011;18221;38.704;0.152;2023-08-24T10:49:42;5.93;;;5.35;;
10174;SDS011;18221;38.704;0.152;2023-08-24T10:52:23;6.30;;;5.70;;
10174;SDS011;18221;38.704;0.152;2023-08-24T10:54:56;6.68;;;5.53;;
10174;SDS011;18221;38.704;0.152;2023-08-24T10:57:34;5.60;;;5.05;;
10174;SDS011;18221;38.704;0.152;2023-08-24T11:00:04;5.53;;;4.93;;
10174;SDS011;18221;38.704;0.152;2023-08-24T11:02:43;5.85;;;5.25;;
10174;SDS011;18221;38.704;0.152;2023-08-24T11:05:16;7.85;;;5.63;;
10174;SDS011;18221;38.704;0.152;2023-08-24T11:07:51;5.75;;;5.25;;
10174;SDS011;18221;38.704;0.152;2023-08-24T11:10:22;6.53;;;5.55;;
10174;SDS011;18221;38.704;0.152;2023-08-24T11:13:08;6.25;;;5.68;;
10174;SDS011;18221;38.704;0.152;2023-08-24T11:15:39;6.10;;;5.57;;
10174;SDS011;18221;38.704;0.152;2023-08-24T11:18:14;6.97;;;5.20;;
10174;SDS011;18221;38.704;0.152;2023-08-24T11:20:52;7.28;;;5.90;;
10174;SDS011;18221;38.704;0.152;2023-08-24T11:23:22;7.07;;;5.85;;
10174;SDS011;18221;38.704;0.152;2023-08-24T11:25:51;6.57;;;5.90;;
10174;SDS011;18221;38.704;0.152;2023-08-24T11:28:24;6.90;;;6.20;;
10174;SDS011;18221;38.704;0.152;2023-08-24T11:30:53;6.25;;;5.65;;
10174;SDS011;18221;38.704;0.152;2023-08-24T11:33:29;7.00;;;6.30;;
10174;SDS011;18221;38.704;0.152;2023-08-24T11:35:58;7.10;;;6.40;;
10174;SDS011;18221;38.704;0.152;2023-08-24T11:38:38;6.68;;;6.05;;
10174;SDS011;18221;38.704;0.152;2023-08-24T11:41:11;7.25;;;6.32;;
10174;SDS011;18221;38.704;0.152;2023-08-24T11:43:41;6.03;;;5.45;;
10174;SDS011;18221;38.704;0.152;2023-08-24T11:46:10;6.75;;;6.05;;
10174;SDS011;18221;38.704;0.152;2023-08-24T11:48:38;6.85;;;6.15;;
10174;SDS011;18221;38.704;0.152;2023-08-24T11:51:08;6.13;;;5.53;;
10174;SDS011;18221;38.704;0.152;2023-08-24T11:53:37;7.75;;;6.03;;
10174;SDS011;18221;38.704;0.152;2023-08-24T11:56:07;7.75;;;6.00;;
10174;SDS011;18221;38.704;0.152;2023-08-24T11:58:37;6.18;;;5.57;;
10174;SDS011;18221;38.704;0.152;2023-08-24T12:01:14;7.60;;;5.70;;
10174;SDS011;18221;38.704;0.152;2023-08-24T12:03:43;6.90;;;5.80;;
10174;SDS011;18221;38.704;0.152;2023-08-24T12:06:12;6.57;;;5.63;;
10174;SDS011;18221;38.704;0.152;2023-08-24T12:08:42;6.30;;;5.65;;
10174;SDS011;18221;38.704;0.152;2023-08-24T12:11:12;5.90;;;5.40;;
10174;SDS011;18221;38.704;0.152;2023-08-24T12:13:50;6.00;;;5.50;;
10174;SDS011;18221;38.704;0.152;2023-08-24T12:16:20;5.78;;;5.28;;
10174;SDS011;18221;38.704;0.152;2023-08-24T12:18:50;6.20;;;5.70;;
10174;SDS011;18221;38.704;0.152;2023-08-24T12:21:21;5.80;;;5.30;;
10174;SDS011;18221;38.704;0.152;2023-08-24T12:23:56;7.72;;;5.38;;
10174;SDS011;18221;38.704;0.152;2023-08-24T12:26:26;6.90;;;5.18;;
10174;SDS011;18221;38.704;0.152;2023-08-24T12:28:59;6.25;;;5.18;;
10174;SDS011;18221;38.704;0.152;2023-08-24T12:31:30;5.40;;;4.90;;
10174;SDS011;18221;38.704;0.152;2023-08-24T12:33:59;5.43;;;5.03;;
10174;SDS011;18221;38.704;0.152;2023-08-24T12:36:31;6.05;;;5.15;;
10174;SDS011;18221;38.704;0.152;2023-08-24T12:39:02;6.07;;;4.90;;
10174;SDS011;18221;38.704;0.152;2023-08-24T12:41:31;5.65;;;5.13;;
10174;SDS011;18221;38.704;0.152;2023-08-24T12:44:00;5.57;;;5.07;;
10174;SDS011;18221;38.704;0.152;2023-08-24T12:46:30;5.80;;;5.30;;
10174;SDS011;18221;38.704;0.152;2023-08-24T12:48:58;6.28;;;5.18;;
10174;SDS011;18221;38.704;0.152;2023-08-24T12:51:27;5.95;;;5.35;;
10174;SDS011;18221;38.704;0.152;2023-08-24T12:53:55;5.93;;;5.10;;
10174;SDS011;18221;38.704;0.152;2023-08-24T12:56:23;7.22;;;4.90;;
10174;SDS011;18221;38.704;0.152;2023-08-24T12:58:51;6.03;;;5.32;;
10174;SDS011;18221;38.704;0.152;2023-08-24T13:01:20;6.88;;;5.30;;
10174;SDS011;18221;38.704;0.152;2023-08-24T13:03:48;5.13;;;4.63;;
10174;SDS011;18221;38.704;0.152;2023-08-24T13:06:16;4.75;;;4.35;;
10174;SDS011;18221;38.704;0.152;2023-08-24T13:08:45;5.93;;;5.43;;
10174;SDS011;18221;38.704;0.152;2023-08-24T13:11:12;5.38;;;4.88;;
10174;SDS011;18221;38.704;0.152;2023-08-24T13:13:41;5.45;;;4.95;;
10174;SDS011;18221;38.704;0.152;2023-08-24T13:16:10;4.95;;;4.45;;
10174;SDS011;18221;38.704;0.152;2023-08-24T13:18:43;5.25;;;4.75;;
10174;SDS011;18221;38.704;0.152;2023-08-24T13:21:11;5.60;;;5.03;;
10174;SDS011;18221;38.704;0.152;2023-08-24T13:23:39;5.78;;;5.10;;
10174;SDS011;18221;38.704;0.152;2023-08-24T13:26:12;6.68;;;4.90;;
10174;SDS011;18221;38.704;0.152;2023-08-24T13:28:45;5.63;;;5.13;;
10174;SDS011;18221;38.704;0.152;2023-08-24T13:31:14;5.30;;;4.80;;
10174;SDS011;18221;38.704;0.152;2023-08-24T13:33:43;6.45;;;5.05;;
10174;SDS011;18221;38.704;0.152;2023-08-24T13:36:12;5.20;;;4.70;;
10174;SDS011;18221;38.704;0.152;2023-08-24T13:38:40;5.15;;;4.68;;
10174;SDS011;18221;38.704;0.152;2023-08-24T13:41:08;5.32;;;4.80;;
10174;SDS011;18221;38.704;0.152;2023-08-24T13:43:37;5.45;;;4.90;;
10174;SDS011;18221;38.704;0.152;2023-08-24T13:46:07;5.90;;;4.65;;
10174;SDS011;18221;38.704;0.152;2023-08-24T13:48:35;5.30;;;4.90;;
10174;SDS011;18221;38.704;0.152;2023-08-24T13:51:04;6.90;;;4.90;;
10174;SDS011;18221;38.704;0.152;2023-08-24T13:53:33;6.40;;;5.10;;
10174;SDS011;18221;38.704;0.152;2023-08-24T13:56:01;7.07;;;4.97;;
10174;SDS011;18221;38.704;0.152;2023-08-24T13:58:29;6.32;;;5.38;;
10174;SDS011;18221;38.704;0.152;2023-08-24T14:00:57;6.70;;;5.75;;
10174;SDS011;18221;38.704;0.152;2023-08-24T14:03:28;6.20;;;5.60;;
10174;SDS011;18221;38.704;0.152;2023-08-24T14:05:56;6.00;;;5.35;;
10174;SDS011;18221;38.704;0.152;2023-08-24T14:08:26;6.38;;;5.63;;
10174;SDS011;18221;38.704;0.152;2023-08-24T14:10:54;6.13;;;5.30;;
10174;SDS011;18221;38.704;0.152;2023-08-24T14:13:22;5.90;;;5.40;;
10174;SDS011;18221;38.704;0.152;2023-08-24T14:15:50;6.95;;;5.07;;
10174;SDS011;18221;38.704;0.152;2023-08-24T14:18:18;5.70;;;5.20;;
10174;SDS011;18221;38.704;0.152;2023-08-24T14:20:46;5.70;;;5.20;;
10174;SDS011;18221;38.704;0.152;2023-08-24T14:23:14;6.15;;;5.55;;
10174;SDS011;18221;38.704;0.152;2023-08-24T14:25:44;6.00;;;5.40;;
10174;SDS011;18221;38.704;0.152;2023-08-24T14:28:18;6.10;;;5.57;;
10174;SDS011;18221;38.704;0.152;2023-08-24T14:30:48;5.53;;;5.03;;
10174;SDS011;18221;38.704;0.152;2023-08-24T14:33:17;5.53;;;5.10;;
10174;SDS011;18221;38.704;0.152;2023-08-24T14:35:51;6.22;;;5.57;;
10174;SDS011;18221;38.704;0.152;2023-08-24T14:38:19;6.63;;;5.40;;
10174;SDS011;18221;38.704;0.152;2023-08-24T14:40:48;5.75;;;5.10;;
10174;SDS011;18221;38.704;0.152;2023-08-24T14:43:16;5.78;;;5.22;;
10174;SDS011;18221;38.704;0.152;2023-08-24T14:45:44;5.75;;;5.25;;
10174;SDS011;18221;38.704;0.152;2023-08-24T14:48:12;6.40;;;5.68;;
10174;SDS011;18221;38.704;0.152;2023-08-24T14:50:40;6.30;;;5.70;;
10174;SDS011;18221;38.704;0.152;2023-08-24T14:53:09;5.95;;;5.35;;
10174;SDS011;18221;38.704;0.152;2023-08-24T14:55:37;6.05;;;5.45;;
10174;SDS011;18221;38.704;0.152;2023-08-24T14:58:07;6.03;;;5.50;;
10174;SDS011;18221;38.704;0.152;2023-08-24T15:00:35;5.65;;;5.13;;
10174;SDS011;18221;38.704;0.152;2023-08-24T15:03:03;6.10;;;5.50;;
10174;SDS011;18221;38.704;0.152;2023-08-24T15:05:36;6.95;;;5.38;;
10174;SDS011;18221;38.704;0.152;2023-08-24T15:08:07;5.80;;;5.20;;
10174;SDS011;18221;38.704;0.152;2023-08-24T15:10:36;5.95;;;5.40;;
10174;SDS011;18221;38.704;0.152;2023-08-24T15:13:04;6.57;;;5.75;;